Tuesday, November 21, 2017, 10:38 AM EST
Back to Local

KFVE, Northern Aroostook Regional

Location: Saint Agatha, ME, United States Lat: 47.283
Local Time: 10:38 AM EST (15:38 GMT) Lon: -68.3
Time Zone: US/Eastern Elev: 987 ft

Show me the last for .
Show Decoded

2017-11-21 09:53 METAR KFVE 211453Z AUTO 17006KT 10SM OVC019 M09/M13 A2992 RMK AO2 SLP151
                 T10941133 58005 =
2017-11-21 09:23 METAR KFVE 211423Z AUTO 19006KT 10SM BKN023 OVC033 M09/M13 A2993 RMK AO2
                 T10941133 =
2017-11-21 09:05 METAR KFVE 211405Z AUTO 18005KT 10SM SCT027 OVC033 M11/M14 A2993 RMK AO2
                 T11061139 =
2017-11-21 08:53 METAR KFVE 211353Z AUTO 18005KT 10SM BKN027 M11/M14 A2993 RMK AO2 SLP155
                 T11061139 =
2017-11-21 07:53 METAR KFVE 211253Z AUTO 19005KT 10SM BKN090 M12/M15 A2994 RMK AO2 SLP157
                 T11221150 =
2017-11-21 06:53 METAR KFVE 211153Z AUTO 14003KT 10SM CLR M14/M17 A2994 RMK AO2 SLP157 T11391167
                 11117 21139 51016 =
2017-11-21 05:53 METAR KFVE 211053Z AUTO 21006KT 10SM CLR M14/M17 A2992 RMK AO2 SLP152 T11391167
                 =
2017-11-21 04:53 METAR KFVE 210953Z AUTO 26006KT 10SM CLR M13/M17 A2991 RMK AO2 SLP146 T11331167
                 =
2017-11-21 03:53 METAR KFVE 210853Z AUTO 25003KT 10SM CLR M13/M17 A2989 RMK AO2 SLP139 T11331167
                 51016 =
2017-11-21 02:53 METAR KFVE 210753Z AUTO 27006KT 10SM CLR M13/M17 A2988 RMK AO2 SLP135 T11331167
                 =
2017-11-21 01:53 METAR KFVE 210653Z AUTO 25005KT 10SM CLR M13/M17 A2986 RMK AO2 SLP129 T11331167
                 =
2017-11-21 01:25 METAR KFVE 210625Z AUTO 24006KT 10SM SCT022 M13/M17 A2985 RMK AO2 T11281167 =
2017-11-21 00:53 METAR KFVE 210553Z AUTO 25006KT 10SM OVC021 M12/M16 A2984 RMK AO2 SLP122
                 T11171161 11100 21117 51020 =
2017-11-20 23:53 METAR KFVE 210453Z AUTO 29011KT 10SM OVC021 M11/M16 A2982 RMK AO2 SLP114
                 T11111156 410331117 =
2017-11-20 22:53 METAR KFVE 210353Z AUTO 29009G17KT 10SM OVC024 M12/M16 A2980 RMK AO2 SLP108
                 T11171161 =
2017-11-20 22:33 METAR KFVE 210333Z AUTO 29015G21KT 10SM BKN024 M11/M16 A2980 RMK AO2 T11111161 =
2017-11-20 21:53 METAR KFVE 210253Z AUTO 28013KT 10SM CLR M11/M17 A2978 RMK AO2 SLP100 T11111167
                 53023 =
2017-11-20 20:53 METAR KFVE 210153Z AUTO 28012G20KT 10SM CLR M11/M16 A2975 RMK AO2 SLP090
                 T11061161 =
2017-11-20 19:53 METAR KFVE 210053Z AUTO 29014G21KT 10SM CLR M11/M16 A2974 RMK AO2 SLP086
                 T11061156 =
2017-11-20 18:53 METAR KFVE 202353Z AUTO 29015G21KT 10SM FEW023 M10/M14 A2971 RMK AO2 PK WND
                 29027/2310 SNE19 SLP076 P0000 60000 T11001144 11061 21100 53030 =
2017-11-20 18:38 METAR KFVE 202338Z AUTO 29015KT 10SM SCT023 M09/M14 A2970 RMK AO2 PK WND
                 29027/2310 SNE19 P0000 T10941144 =
2017-11-20 17:53 METAR KFVE 202253Z AUTO 28014KT 5SM -SN OVC024 M09/M13 A2967 RMK AO2 SNE2157B17
                 SLP063 P0000 T10891128 =
2017-11-20 16:53 METAR KFVE 202153Z AUTO 27013G21KT 9SM -SN BKN024 OVC028 M08/M13 A2965 RMK AO2
                 SNB2055 SLP053 P0000 T10831133 =
2017-11-20 15:53 METAR KFVE 202053Z AUTO 27011KT 9SM SCT023 OVC029 M08/M12 A2962 RMK AO2
                 SNE25B40E49 SLP042 P0000 60000 T10831117 53028 =
2017-11-20 15:36 METAR KFVE 202036Z AUTO 26011G22KT 10SM SCT023 BKN030 OVC035 M08/M12 A2961 RMK
                 AO2 SNE25 P0000 T10781122 =
2017-11-20 14:53 METAR KFVE 201953Z AUTO 27012KT 9SM -SN BKN023 BKN029 OVC033 M07/M11 A2958 RMK
                 AO2 SLP031 P0000 T10721111 =
2017-11-20 14:42 METAR KFVE 201942Z AUTO 26015G22KT 3SM -SN SCT018 BKN025 OVC031 M07/M11 A2958
                 RMK AO2 P0000 T10721106 =
2017-11-20 14:39 METAR KFVE 201939Z AUTO 28012G22KT 1 3/4SM -SN SCT018 OVC025 M07/M11 A2958 RMK
                 AO2 P0000 T10721106 =
2017-11-20 14:35 METAR KFVE 201935Z AUTO 27012G19KT 1 1/4SM -SN BKN020 BKN025 OVC031 M08/M11
                 A2957 RMK AO2 P0000 T10781106 =
2017-11-20 14:26 METAR KFVE 201926Z AUTO 27013G22KT 3/4SM -SN BKN016 BKN023 OVC028 M08/M11 A2957
                 RMK AO2 P0000 T10781106 =
2017-11-20 14:17 METAR KFVE 201917Z AUTO 28017G25KT 1 1/4SM -SN BKN019 OVC032 M07/M11 A2956 RMK
                 AO2 P0000 T10721111 =
2017-11-20 14:09 METAR KFVE 201909Z AUTO 27014G25KT 1 3/4SM -SN BKN021 BKN030 OVC035 M07/M11
                 A2956 RMK AO2 P0000 T10721111 =
2017-11-20 14:05 METAR KFVE 201905Z AUTO 27017G25KT 1 1/4SM -SN BKN019 BKN024 OVC035 M07/M11
                 A2956 RMK AO2 P0000 T10721111 =
2017-11-20 13:58 METAR KFVE 201858Z AUTO 27017G23KT 1 3/4SM -SN BKN022 OVC035 M07/M11 A2955 RMK
                 AO2 P0000 T10671111 =
2017-11-20 13:53 METAR KFVE 201853Z AUTO 27018G23KT 3SM -SN SCT022 OVC035 M07/M11 A2955 RMK AO2
                 SLP021 P0000 T10671111 =
2017-11-20 13:06 METAR KFVE 201806Z AUTO 27013G22KT 7SM -SN SCT023 SCT027 OVC043 M06/M11 A2953
                 RMK AO2 P0000 T10611106 =
2017-11-20 12:58 METAR KFVE 201758Z AUTO 27013G19KT 2SM -SN BKN022 BKN027 OVC041 M07/M10 A2953
                 RMK AO2 P0000 T10671100 =
2017-11-20 12:56 METAR KFVE 201756Z AUTO 27015G19KT 1 1/2SM -SN BKN022 BKN027 OVC041 M07/M09
                 A2953 RMK AO2 P0000 T10671094 =
2017-11-20 12:53 METAR KFVE 201753Z AUTO 27011G19KT 3/4SM -SN BKN020 BKN027 OVC039 M06/M09 A2953
                 RMK AO2 SLP012 P0000 60000 T10611094 11050 21067 53012 =
2017-11-20 12:49 METAR KFVE 201749Z AUTO 28015KT 3/4SM -SN BKN018 BKN025 OVC037 M07/M10 A2953 RMK
                 AO2 P0000 =
2017-11-20 12:44 METAR KFVE 201744Z AUTO 28016KT 1 3/4SM -SN BKN023 BKN028 OVC037 M06/M10 A2953
                 RMK AO2 P0000 T10611100 =
2017-11-20 12:29 METAR KFVE 201729Z AUTO 28015G21KT 3SM -SN BKN021 OVC027 M06/M11 A2952 RMK AO2
                 P0000 T10561106 =
2017-11-20 12:23 METAR KFVE 201723Z AUTO 26015G21KT 1 3/4SM -SN BKN019 OVC025 M06/M11 A2952 RMK
                 AO2 P0000 T10611106 =
2017-11-20 12:12 METAR KFVE 201712Z AUTO 25013G22KT 1 1/4SM -SN BKN020 OVC028 M06/M10 A2952 RMK
                 AO2 P0000 T10561100 =
2017-11-20 12:08 METAR KFVE 201708Z AUTO 26015G22KT 1 3/4SM -SN BKN022 OVC028 M06/M10 A2952 RMK
                 AO2 P0000 T10561100 =
2017-11-20 11:53 METAR KFVE 201653Z AUTO 26016G22KT 6SM -SN BKN024 OVC030 M05/M11 A2951 RMK AO2
                 SLP004 P0000 T10501106 =
2017-11-20 11:39 METAR KFVE 201639Z AUTO 27017G22KT 3SM -SN BKN020 OVC030 M06/M10 A2951 RMK AO2
                 P0000 T10561100 =
2017-11-20 11:25 METAR KFVE 201625Z AUTO 26013G21KT 2SM -SN BKN019 BKN025 OVC033 M06/M09 A2951
                 RMK AO2 VIS 1 1/2V3 P0000 T10561094 =
2017-11-20 11:17 METAR KFVE 201617Z AUTO 26015G22KT 1 1/2SM -SN BKN019 BKN027 OVC035 M06/M09
                 A2951 RMK AO2 P0000 T10561094 TSNO =
2017-11-20 11:14 METAR KFVE 201614Z AUTO 26016G24KT 2SM -SN BKN021 BKN027 OVC034 M06/M09 A2950
                 RMK AO2 P0000 T10561094 =
2017-11-20 11:01 METAR KFVE 201601Z AUTO 27015G25KT 1 3/4SM -SN BKN021 BKN027 OVC035 M06/M11
                 A2950 RMK AO2 P0000 T10561106 =
2017-11-20 10:53 METAR KFVE 201553Z AUTO 26017G24KT 8SM -SN BKN028 OVC035 M05/M11 A2950 RMK AO2
                 PK WND 27026/1526 SNB26 SLP001 P0000 T10501106 =

Support USWX by starting your Amazon purchase here.